createdAt,value
2017-05-12T00:04:19.400Z,33.9
2017-05-12T00:15:19.141Z,33.3
2017-05-12T00:26:18.443Z,33.4
2017-05-12T00:37:18.482Z,33.1
2017-05-12T00:48:18.274Z,32.8
2017-05-12T00:59:20.100Z,32.4
2017-05-12T01:10:18.527Z,32.5
2017-05-12T01:21:18.663Z,32.8
2017-05-12T01:32:18.409Z,35.3
2017-05-12T01:43:18.187Z,32.4
2017-05-12T01:54:20.373Z,32.2
2017-05-12T02:05:18.314Z,38.7
2017-05-12T02:16:18.030Z,32.6
2017-05-12T02:27:18.643Z,32.8
2017-05-12T02:38:18.795Z,33.2
2017-05-12T02:49:19.023Z,36.4
2017-05-12T03:00:18.521Z,33.1
2017-05-12T03:11:18.332Z,32.8
2017-05-12T03:22:18.548Z,32.7
2017-05-12T03:33:18.599Z,32.6
2017-05-12T03:44:19.835Z,32.8
2017-05-12T03:55:18.090Z,33.2
2017-05-12T04:06:18.758Z,32.8
2017-05-12T04:17:19.125Z,35.4
2017-05-12T04:28:18.980Z,36.7
2017-05-12T04:39:19.492Z,37.6
2017-05-12T04:50:18.950Z,38.7
2017-05-12T05:01:18.450Z,39.5
2017-05-12T05:12:18.097Z,40.2
2017-05-12T05:23:18.290Z,38
2017-05-12T05:34:19.399Z,38.4
2017-05-12T05:45:19.192Z,38.3
2017-05-12T05:56:18.836Z,38.8
2017-05-12T06:07:18.884Z,38
2017-05-12T06:18:18.547Z,37.8
2017-05-12T06:29:20.052Z,37
2017-05-12T06:40:19.068Z,36.1
2017-05-12T06:51:17.877Z,36.8
2017-05-12T07:02:18.649Z,36.6
2017-05-12T07:13:17.891Z,36.6
2017-05-12T07:24:19.972Z,36.2
2017-05-12T07:35:18.467Z,36.2
2017-05-12T07:46:19.096Z,35.5
2017-05-12T07:57:17.997Z,35.8
2017-05-12T08:08:18.183Z,35.7
2017-05-12T08:19:19.374Z,35.4
2017-05-12T08:30:18.263Z,35.5
2017-05-12T08:41:19.145Z,35.4
2017-05-12T08:52:19.135Z,34.5
2017-05-12T09:03:18.370Z,34.2
2017-05-12T09:14:19.332Z,33.5
2017-05-12T09:25:18.216Z,34.3
2017-05-12T09:36:18.429Z,33.7
2017-05-12T09:47:18.847Z,33.6
2017-05-12T09:58:18.163Z,33.6
2017-05-12T10:09:19.629Z,37.3
2017-05-12T10:20:19.017Z,38.7
2017-05-12T10:31:18.751Z,39.8
2017-05-12T10:42:18.381Z,39.9
2017-05-12T10:53:18.651Z,41.5
2017-05-12T11:04:19.145Z,42.4
2017-05-12T11:15:18.669Z,40.2
2017-05-12T11:26:18.016Z,40.3
2017-05-12T11:37:18.840Z,40.7
2017-05-12T11:48:18.584Z,41.1
2017-05-12T11:59:19.123Z,40.9
2017-05-12T12:10:18.929Z,40.7
2017-05-12T12:21:18.499Z,40.7
2017-05-12T12:32:17.979Z,39.8
2017-05-12T12:43:18.271Z,40.3
2017-05-12T12:54:20.571Z,39.7
2017-05-12T13:05:19.547Z,39.9
2017-05-12T13:16:18.512Z,39.5
2017-05-12T13:27:19.347Z,37.4
2017-05-12T13:38:18.971Z,36.7
2017-05-12T13:49:20.027Z,36.7
2017-05-12T14:00:18.710Z,36.9
2017-05-12T14:11:19.267Z,38.2
2017-05-12T14:22:19.368Z,38.6
2017-05-12T14:33:18.521Z,39.1
2017-05-12T14:44:19.684Z,39
2017-05-12T14:55:18.706Z,38.9
2017-05-12T15:06:18.757Z,39.8
2017-05-12T15:17:18.367Z,39.5
2017-05-12T15:28:18.834Z,40.6
2017-05-12T15:39:20.002Z,41.1
2017-05-12T15:50:18.476Z,41.6
2017-05-12T16:01:18.332Z,40.9
2017-05-12T16:12:18.078Z,41.4
2017-05-12T16:23:18.391Z,41.3
2017-05-12T16:34:19.439Z,41.2
2017-05-12T16:45:18.238Z,40.6
2017-05-12T16:56:18.346Z,41.6
2017-05-12T17:07:18.432Z,40.9
2017-05-12T17:18:18.120Z,42.5
2017-05-12T17:29:20.191Z,42.4
2017-05-12T17:40:18.574Z,42.8
2017-05-12T17:51:18.285Z,42.9
2017-05-12T18:02:18.875Z,40.5
2017-05-12T18:13:18.599Z,39.9
2017-05-12T18:24:20.696Z,39
2017-05-12T18:35:18.459Z,39
2017-05-12T18:46:18.354Z,38.5
2017-05-12T18:57:19.051Z,37.8
2017-05-12T19:08:18.398Z,37.1
2017-05-12T19:19:20.075Z,36.5
2017-05-12T19:30:18.526Z,36
2017-05-12T19:41:18.104Z,36
2017-05-12T19:52:18.364Z,34.9
2017-05-12T20:03:18.101Z,34.9
2017-05-12T20:14:20.621Z,34.2
2017-05-12T20:25:18.812Z,36.7
2017-05-12T20:36:18.290Z,38.7
2017-05-12T20:47:18.587Z,38.9
2017-05-12T20:58:18.829Z,40
2017-05-12T21:09:20.726Z,40.9
2017-05-12T21:20:18.235Z,42.4
2017-05-12T21:31:18.282Z,43
2017-05-12T21:42:17.940Z,41.2
2017-05-12T21:53:18.391Z,39.8
2017-05-12T22:04:20.414Z,38.9
2017-05-12T22:15:17.884Z,39.3
2017-05-12T22:26:18.352Z,38.8
2017-05-12T22:37:19.274Z,38.8
2017-05-12T22:48:18.198Z,38.6
2017-05-12T22:59:19.674Z,38.5
2017-05-12T23:10:17.945Z,38.1
2017-05-12T23:21:18.651Z,38.1
2017-05-12T23:32:18.519Z,38.6
2017-05-12T23:43:18.676Z,38.2
2017-05-12T23:54:19.574Z,38.7
